KLAM

Details ICAO KLAM (LAM)
Name LOS ALAMOS
Region United States
Timezone America/Denver (UTC-6.0)
Plans Departing 6
Arriving 16
Stats Elevation 7,171 ft / 2,186 m (AMSL)
Location 35.879808° -106.269413°
Runways 1
Magnetic Variation 8.510° E
Sunrise 2017-07-24 12:07:55 UTC / 2017-07-24 06:07:55 Local
Sunset 2017-07-25 02:17:31 UTC / 2017-07-24 20:17:31 Local
Advertisement - Login to hide

Runways

ID Width Length Bearing (true) Bearing (mag) Surface Threshold Offset Overrun Length
09 113 ft / 34 m 5,538 ft / 1,688 m 102.45° 93.94° Asphalt 0 ft / 0 m 0 ft / 0 m
27 113 ft / 34 m 5,538 ft / 1,688 m 282.46° 273.95° Asphalt 0 ft / 0 m 0 ft / 0 m

Map

Weather


0- 5 10 15 20 25 30 35+ Temperature / ° C

Clouds and Precipitation
Forecast for 2017-07-25 00:00 UTC. Updated an hour ago

Ground ~20,000 ft ~40,000 ft Winds

METAR

KLAM 250015Z AUTO 11011G15KT 10SM SCT080 27/08 A3023 RMK AO2 T02700079

TAF

Not found

Frequencies

Recorded 124.17 MHz AWOS 3
Unicom 123.00 MHz CTAF/UNICOM
Warning: Do not use this data for real-world aviation or navigation. No guarantee of current accuracy is given.